Time;durP1;ratioP1;P1;durP2;ratioP2;P2;SDS_P1;SDS_P2;PMS_P1;PMS_P2;Temp;Humidity;BMP_temperature;BMP_pressure;BME280_temperature;BME280_humidity;BME280_pressure;Samples;Min_cycle;Max_cycle;Signal;HPM_P1;HPM_P2
2023/01/19 00:00:39;;;;;;;8.05;3.90;;;-0.50;99.90;;;;;;5079301;28;25045;-69
2023/01/19 00:03:14;;;;;;;10.80;4.30;;;-0.50;99.90;;;;;;5079106;28;25048;-69
2023/01/19 00:05:43;;;;;;;12.77;4.83;;;-0.60;99.90;;;;;;5097965;28;25055;-69
2023/01/19 00:08:14;;;;;;;9.02;5.38;;;-0.60;99.90;;;;;;5096988;28;25074;-69
2023/01/19 00:10:44;;;;;;;10.15;4.45;;;-0.60;99.90;;;;;;5097143;28;25107;-69
2023/01/19 00:13:12;;;;;;;15.05;4.63;;;-0.60;99.90;;;;;;5096965;28;25045;-69
2023/01/19 00:15:39;;;;;;;9.38;4.82;;;-0.60;99.90;;;;;;5096937;28;25084;-69
2023/01/19 00:18:06;;;;;;;8.25;3.95;;;-0.60;99.90;;;;;;5079454;28;25120;-69
2023/01/19 00:20:37;;;;;;;11.93;6.03;;;-0.60;99.90;;;;;;5096997;28;25117;-68
2023/01/19 00:23:06;;;;;;;11.60;5.38;;;-0.60;99.90;;;;;;5096754;28;25052;-69
2023/01/19 00:25:34;;;;;;;8.52;4.35;;;-0.60;99.90;;;;;;5096840;28;25133;-69
2023/01/19 00:28:02;;;;;;;7.25;3.20;;;-0.60;99.90;;;;;;5096758;28;25051;-69
2023/01/19 00:30:29;;;;;;;14.27;4.47;;;-0.60;99.90;;;;;;5096894;28;25087;-68
2023/01/19 00:32:56;;;;;;;11.73;5.43;;;-0.60;99.90;;;;;;5096666;28;25091;-69
2023/01/19 00:35:23;;;;;;;11.05;5.05;;;-0.60;99.90;;;;;;5096027;28;25059;-69
2023/01/19 00:37:51;;;;;;;12.00;5.05;;;-0.60;99.90;;;;;;5075129;28;25098;-69
2023/01/19 00:40:18;;;;;;;12.27;5.38;;;-0.60;99.90;;;;;;5076740;28;25056;-69
2023/01/19 00:42:47;;;;;;;10.98;4.78;;;-0.60;99.90;;;;;;5075269;28;25079;-68
2023/01/19 00:45:20;;;;;;;9.77;4.90;;;-0.60;99.90;;;;;;5076898;28;25080;-68
2023/01/19 00:47:53;;;;;;;13.65;5.10;;;-0.50;99.90;;;;;;5076300;28;25079;-69
2023/01/19 00:50:21;;;;;;;9.50;4.43;;;-0.50;99.90;;;;;;5077216;28;25075;-69
2023/01/19 00:52:49;;;;;;;6.65;4.18;;;-0.40;99.90;;;;;;5076117;28;25075;-69
2023/01/19 00:55:17;;;;;;;14.70;4.32;;;-0.40;99.90;;;;;;5076231;28;25105;-69
2023/01/19 00:57:44;;;;;;;10.98;4.13;;;-0.30;99.90;;;;;;5076433;28;25066;-69
2023/01/19 01:00:15;;;;;;;11.73;5.25;;;-0.30;99.90;;;;;;5058602;28;25060;-69
2023/01/19 01:02:43;;;;;;;11.93;5.65;;;-0.20;99.90;;;;;;5076487;28;25120;-69
2023/01/19 01:05:11;;;;;;;7.63;3.65;;;-0.10;99.90;;;;;;5076383;28;25068;-69
2023/01/19 01:07:40;;;;;;;10.50;4.43;;;-0.10;99.90;;;;;;5076128;28;25135;-69
2023/01/19 01:10:14;;;;;;;8.52;4.70;;;0.00;99.90;;;;;;5076083;28;25141;-69
2023/01/19 01:12:42;;;;;;;11.15;4.45;;;-0.10;99.90;;;;;;5076632;28;25068;-69
2023/01/19 01:15:12;;;;;;;10.50;4.60;;;0.00;99.90;;;;;;5076810;28;25113;-69
2023/01/19 01:17:51;;;;;;;9.00;4.22;;;0.00;99.90;;;;;;5076036;28;25070;-69
2023/01/19 01:20:26;;;;;;;10.98;4.57;;;0.00;99.90;;;;;;5074793;28;25131;-69
2023/01/19 01:22:54;;;;;;;9.77;3.92;;;0.00;99.90;;;;;;5075918;28;25102;-69
2023/01/19 01:25:23;;;;;;;10.63;5.38;;;0.00;99.90;;;;;;5076424;28;25133;-69
2023/01/19 01:27:51;;;;;;;7.13;4.22;;;0.00;99.90;;;;;;5074937;28;25102;-69
2023/01/19 01:30:20;;;;;;;12.20;5.97;;;0.00;99.90;;;;;;5074851;28;25097;-69
2023/01/19 01:32:47;;;;;;;8.63;4.88;;;-0.10;99.90;;;;;;5074810;28;25060;-69
2023/01/19 01:35:15;;;;;;;9.98;4.50;;;-0.10;99.90;;;;;;5075968;28;25129;-69
2023/01/19 01:37:43;;;;;;;11.13;5.50;;;-0.10;99.90;;;;;;5093934;28;25167;-69
2023/01/19 01:40:14;;;;;;;9.68;4.95;;;-0.10;99.90;;;;;;5096265;28;25108;-69
2023/01/19 01:42:42;;;;;;;11.93;4.75;;;-0.10;99.90;;;;;;5095960;28;25048;-69
2023/01/19 01:45:35;;;;;;;9.85;5.22;;;-0.10;99.90;;;;;;5096110;28;25107;-69
2023/01/19 01:48:15;;;;;;;9.88;4.38;;;-0.10;99.90;;;;;;5081725;28;25059;-69
2023/01/19 01:53:37;;;;;;;12.18;5.25;;;0.00;99.90;;;;;;5099966;28;25142;-69
2023/01/19 01:56:11;;;;;;;12.98;4.68;;;0.00;99.90;;;;;;5099559;28;25146;-69
2023/01/19 01:58:39;;;;;;;8.55;4.18;;;0.10;99.90;;;;;;5100396;28;25119;-69
2023/01/19 02:03:53;;;;;;;8.88;4.35;;;0.10;99.90;;;;;;5099915;28;25112;-69
2023/01/19 02:06:21;;;;;;;8.43;4.00;;;0.10;99.90;;;;;;5099949;28;25109;-68
2023/01/19 02:14:37;;;;;;;7.22;3.38;;;0.10;99.90;;;;;;5099723;28;25078;-69
2023/01/19 02:17:05;;;;;;;16.20;5.40;;;0.10;99.90;;;;;;5099222;28;25064;-69
2023/01/19 02:19:43;;;;;;;8.98;3.80;;;0.10;99.90;;;;;;5099097;28;25114;-69
2023/01/19 02:22:24;;;;;;;11.48;4.80;;;0.10;99.90;;;;;;5099671;28;25128;-69
2023/01/19 02:24:52;;;;;;;10.00;4.88;;;0.00;99.90;;;;;;5098987;28;25121;-69
2023/01/19 02:27:20;;;;;;;25.98;4.90;;;0.00;99.90;;;;;;5098920;28;25062;-69
2023/01/19 02:29:48;;;;;;;6.95;4.15;;;0.00;99.90;;;;;;5098957;28;25050;-69
2023/01/19 02:32:16;;;;;;;11.95;4.60;;;0.10;99.90;;;;;;5098837;28;25060;-69
2023/01/19 02:34:43;;;;;;;10.55;4.88;;;0.10;99.90;;;;;;5098897;28;25103;-69
2023/01/19 02:37:13;;;;;;;9.10;3.72;;;0.10;99.90;;;;;;5098563;28;25068;-69
2023/01/19 02:39:49;;;;;;;9.60;5.07;;;0.10;99.90;;;;;;5098706;28;25046;-69
2023/01/19 02:42:35;;;;;;;8.43;4.38;;;0.20;99.90;;;;;;5098514;28;25073;-69
2023/01/19 02:45:05;;;;;;;7.43;4.00;;;0.30;99.90;;;;;;5098632;28;25054;-69
2023/01/19 02:47:48;;;;;;;11.15;4.38;;;0.30;99.90;;;;;;5098452;28;25100;-69
2023/01/19 02:50:38;;;;;;;9.73;4.30;;;0.40;99.90;;;;;;5098903;28;25060;-69
2023/01/19 02:53:21;;;;;;;6.70;3.90;;;0.40;99.90;;;;;;5098681;28;25118;-69
2023/01/19 02:55:58;;;;;;;11.20;5.75;;;0.40;99.90;;;;;;5099036;28;25066;-69
2023/01/19 02:58:45;;;;;;;6.40;3.63;;;0.40;99.90;;;;;;5098335;28;25112;-69
2023/01/19 03:01:24;;;;;;;8.35;4.22;;;0.50;99.90;;;;;;5098254;28;25124;-69
2023/01/19 03:04:25;;;;;;;8.23;4.65;;;0.40;99.90;;;;;;5098892;28;25062;-69
2023/01/19 03:07:14;;;;;;;7.88;3.45;;;0.40;99.90;;;;;;5098176;28;25144;-69
2023/01/19 03:09:43;;;;;;;9.48;5.05;;;0.40;99.90;;;;;;5098518;28;25063;-69
2023/01/19 03:12:35;;;;;;;8.80;4.45;;;0.40;99.90;;;;;;5098699;28;25076;-69
2023/01/19 03:15:17;;;;;;;6.03;3.83;;;0.40;99.90;;;;;;5098100;28;25098;-69
2023/01/19 03:17:48;;;;;;;7.60;3.88;;;0.40;99.90;;;;;;5098577;28;25106;-69
2023/01/19 03:20:24;;;;;;;8.27;5.00;;;0.50;99.90;;;;;;5098553;28;25129;-69
2023/01/19 03:23:07;;;;;;;8.75;4.68;;;0.50;99.90;;;;;;5097688;28;25086;-69
2023/01/19 03:25:39;;;;;;;10.88;5.35;;;0.40;99.90;;;;;;5097912;28;25104;-69
2023/01/19 03:28:06;;;;;;;11.40;5.32;;;0.40;99.90;;;;;;5079779;28;25114;-69
2023/01/19 03:30:49;;;;;;;9.30;3.88;;;0.40;99.90;;;;;;5079923;28;25077;-69
2023/01/19 03:33:32;;;;;;;11.65;5.45;;;0.50;99.90;;;;;;5097680;28;25067;-69
2023/01/19 03:36:08;;;;;;;11.43;4.65;;;0.40;99.90;;;;;;5097974;28;25085;-69
2023/01/19 03:38:38;;;;;;;9.13;4.32;;;0.40;99.90;;;;;;5097560;28;25145;-69
2023/01/19 03:41:12;;;;;;;11.10;4.90;;;0.40;99.90;;;;;;5098056;28;25077;-69
2023/01/19 03:43:40;;;;;;;12.77;5.25;;;0.40;99.90;;;;;;5098793;28;25104;-69
2023/01/19 03:46:09;;;;;;;9.93;4.57;;;0.40;99.90;;;;;;5079482;28;25067;-69
2023/01/19 03:48:38;;;;;;;13.40;4.47;;;0.40;99.90;;;;;;5097486;28;25082;-69
2023/01/19 03:51:07;;;;;;;9.70;5.18;;;0.40;99.90;;;;;;5097969;28;25078;-69
2023/01/19 03:53:36;;;;;;;9.48;5.13;;;0.40;99.90;;;;;;5079451;28;25120;-69
2023/01/19 03:56:03;;;;;;;11.88;4.70;;;0.40;99.90;;;;;;5079277;28;25074;-69
2023/01/19 03:58:31;;;;;;;11.32;4.85;;;0.40;99.90;;;;;;5097253;28;25079;-69
2023/01/19 04:00:58;;;;;;;10.20;4.93;;;0.40;99.90;;;;;;5097690;28;25074;-69
2023/01/19 04:03:25;;;;;;;8.20;4.40;;;0.40;99.90;;;;;;5097907;28;25079;-69
2023/01/19 04:05:52;;;;;;;7.50;3.78;;;0.50;99.90;;;;;;5079822;28;25048;-69
2023/01/19 04:08:19;;;;;;;8.30;4.32;;;0.50;99.90;;;;;;5096944;28;25069;-69
2023/01/19 04:10:47;;;;;;;4.38;3.00;;;0.50;99.90;;;;;;5096283;28;25061;-69
2023/01/19 04:13:14;;;;;;;8.15;4.40;;;0.50;99.90;;;;;;5062613;28;25084;-69
2023/01/19 04:15:41;;;;;;;9.93;5.03;;;0.50;99.90;;;;;;5079163;28;25078;-69
2023/01/19 04:18:09;;;;;;;9.82;4.10;;;0.60;99.90;;;;;;5062341;28;25065;-69
2023/01/19 04:20:37;;;;;;;7.40;3.97;;;0.60;99.90;;;;;;5079622;28;25055;-69
2023/01/19 04:23:04;;;;;;;8.38;4.25;;;0.60;99.90;;;;;;5097454;28;25051;-69
2023/01/19 04:25:32;;;;;;;10.10;5.07;;;0.70;99.90;;;;;;5078839;28;25074;-69
2023/01/19 04:28:00;;;;;;;9.10;5.25;;;0.70;99.90;;;;;;5096694;28;25057;-69
2023/01/19 04:30:27;;;;;;;8.60;4.32;;;0.70;99.90;;;;;;5079161;28;25081;-69
2023/01/19 04:32:55;;;;;;;10.10;4.38;;;0.70;99.90;;;;;;5079024;28;25072;-69
2023/01/19 04:35:22;;;;;;;9.55;4.68;;;0.70;99.90;;;;;;5097387;28;25055;-69
2023/01/19 04:37:50;;;;;;;12.82;5.13;;;0.70;99.90;;;;;;5096433;28;25077;-69
2023/01/19 04:40:19;;;;;;;8.93;4.85;;;0.70;99.90;;;;;;5096424;28;25067;-69
2023/01/19 04:42:47;;;;;;;14.32;4.57;;;0.70;99.90;;;;;;5078664;28;25117;-69
2023/01/19 04:45:15;;;;;;;10.07;5.18;;;0.70;99.90;;;;;;5078823;28;25098;-69
2023/01/19 04:47:43;;;;;;;9.38;4.47;;;0.70;99.90;;;;;;5096517;28;25099;-69
2023/01/19 04:50:11;;;;;;;8.60;5.20;;;0.70;99.90;;;;;;5096499;28;25050;-69
2023/01/19 04:52:38;;;;;;;8.00;4.40;;;0.80;99.90;;;;;;5078567;28;25052;-69
2023/01/19 04:55:06;;;;;;;7.38;3.97;;;0.80;99.90;;;;;;5061989;28;25086;-69
2023/01/19 04:57:34;;;;;;;10.50;5.10;;;0.80;99.90;;;;;;5096446;28;25089;-69
2023/01/19 05:00:03;;;;;;;5.97;3.72;;;0.80;99.90;;;;;;5061821;28;25079;-69
2023/01/19 05:02:30;;;;;;;12.60;5.45;;;0.80;99.90;;;;;;5096303;28;25057;-69
2023/01/19 05:04:57;;;;;;;10.85;4.82;;;0.80;99.90;;;;;;5078598;28;25098;-69
2023/01/19 05:07:25;;;;;;;8.50;3.53;;;0.80;99.90;;;;;;5096354;28;25126;-69
2023/01/19 05:09:52;;;;;;;13.00;4.95;;;0.80;99.90;;;;;;5096341;28;25113;-69
2023/01/19 05:12:20;;;;;;;7.78;3.17;;;0.80;99.90;;;;;;5096317;28;25059;-69
2023/01/19 05:14:47;;;;;;;7.00;3.58;;;0.80;99.90;;;;;;5096482;28;25097;-69
2023/01/19 05:17:14;;;;;;;8.48;4.00;;;0.80;99.90;;;;;;5096249;28;25095;-69
2023/01/19 05:19:41;;;;;;;5.80;3.10;;;0.80;99.90;;;;;;5096187;28;25057;-69
2023/01/19 05:22:09;;;;;;;9.02;3.97;;;0.80;99.90;;;;;;5099441;28;25066;-69
2023/01/19 05:24:36;;;;;;;6.00;3.95;;;0.80;99.90;;;;;;5082564;28;25060;-69
2023/01/19 05:27:04;;;;;;;3.40;2.38;;;0.80;99.90;;;;;;5100208;28;25132;-69
2023/01/19 05:29:32;;;;;;;8.52;4.85;;;0.90;99.90;;;;;;5082162;28;25080;-69
2023/01/19 05:32:00;;;;;;;6.10;3.72;;;0.90;99.90;;;;;;5100053;28;25054;-69
2023/01/19 05:34:27;;;;;;;13.77;5.43;;;0.90;99.90;;;;;;5100758;28;25053;-69
2023/01/19 05:36:54;;;;;;;9.50;5.28;;;0.90;99.90;;;;;;5099685;28;25101;-69
2023/01/19 05:39:21;;;;;;;16.33;5.82;;;0.90;99.90;;;;;;5099981;28;25063;-69
2023/01/19 05:41:49;;;;;;;19.25;4.57;;;0.90;99.90;;;;;;5099916;28;25114;-69
2023/01/19 05:44:16;;;;;;;8.10;3.45;;;0.90;99.90;;;;;;5099850;28;25076;-69
2023/01/19 05:46:43;;;;;;;11.90;4.65;;;1.00;99.90;;;;;;5081800;28;25305;-69
2023/01/19 05:49:12;;;;;;;9.80;4.50;;;1.00;99.90;;;;;;5099984;28;25113;-69
2023/01/19 05:51:44;;;;;;;6.93;3.85;;;1.10;99.90;;;;;;5099976;28;25117;-69
2023/01/19 05:54:17;;;;;;;6.75;2.97;;;1.10;99.90;;;;;;5100051;28;25114;-69
2023/01/19 05:56:44;;;;;;;12.07;5.15;;;1.10;99.90;;;;;;5099545;28;25086;-69
2023/01/19 05:59:12;;;;;;;8.10;2.78;;;1.10;99.90;;;;;;5100081;28;25058;-69
2023/01/19 06:01:39;;;;;;;7.63;3.80;;;1.20;99.90;;;;;;5099440;28;25119;-69
2023/01/19 06:04:06;;;;;;;7.78;3.47;;;1.20;99.90;;;;;;5099554;28;25082;-69
2023/01/19 06:06:34;;;;;;;7.60;3.50;;;1.20;99.90;;;;;;5081388;28;25094;-69
2023/01/19 06:09:01;;;;;;;6.10;3.58;;;1.20;99.90;;;;;;5099055;28;25148;-69
2023/01/19 06:11:28;;;;;;;9.05;3.95;;;1.30;99.90;;;;;;5099327;28;25100;-69
2023/01/19 06:13:55;;;;;;;7.70;4.03;;;1.30;99.90;;;;;;5099989;28;25067;-70
2023/01/19 06:16:23;;;;;;;5.22;2.85;;;1.30;99.90;;;;;;5082018;28;25102;-69
2023/01/19 06:18:51;;;;;;;6.53;3.92;;;1.30;99.90;;;;;;5099101;28;25105;-69
2023/01/19 06:21:18;;;;;;;8.77;4.50;;;1.30;99.90;;;;;;5098880;28;25068;-69
2023/01/19 06:23:46;;;;;;;8.63;3.55;;;1.40;99.90;;;;;;5099701;28;25054;-69
2023/01/19 06:26:14;;;;;;;12.95;5.43;;;1.30;99.90;;;;;;5099060;28;25105;-69
2023/01/19 06:28:41;;;;;;;7.97;4.20;;;1.40;99.90;;;;;;5081035;28;25066;-69
2023/01/19 06:31:08;;;;;;;9.15;3.92;;;1.40;99.90;;;;;;5081040;28;25053;-69
2023/01/19 06:33:36;;;;;;;7.88;4.03;;;1.40;99.90;;;;;;5098609;28;25062;-69
2023/01/19 06:36:04;;;;;;;8.13;4.05;;;1.40;99.90;;;;;;5099238;28;25060;-70
2023/01/19 06:38:31;;;;;;;9.15;3.55;;;1.40;99.90;;;;;;5098733;28;25091;-69
2023/01/19 06:40:58;;;;;;;6.20;3.45;;;1.40;99.90;;;;;;5098592;28;25056;-69
2023/01/19 06:43:26;;;;;;;7.13;3.05;;;1.40;99.90;;;;;;5099491;28;25110;-69
2023/01/19 06:45:55;;;;;;;5.13;3.08;;;1.40;99.90;;;;;;5080717;28;25058;-69
2023/01/19 06:48:22;;;;;;;10.50;3.90;;;1.40;99.90;;;;;;5099131;28;25058;-69
2023/01/19 06:50:49;;;;;;;6.20;2.80;;;1.40;99.90;;;;;;5080506;28;25060;-69
2023/01/19 06:53:19;;;;;;;12.40;5.15;;;1.40;99.90;;;;;;5064204;28;25068;-69
2023/01/19 06:55:47;;;;;;;17.67;7.53;;;1.40;99.90;;;;;;5080600;28;25117;-70
2023/01/19 06:58:15;;;;;;;15.88;6.45;;;1.40;99.90;;;;;;5098630;28;25065;-79
2023/01/19 07:00:43;;;;;;;11.68;5.20;;;1.40;99.90;;;;;;5098232;28;25072;-77
2023/01/19 07:03:18;;;;;;;9.32;4.65;;;1.40;99.90;;;;;;5080509;28;25090;-78
2023/01/19 07:05:45;;;;;;;10.30;4.88;;;1.40;99.90;;;;;;5098260;28;25138;-75
2023/01/19 07:08:14;;;;;;;9.43;4.57;;;1.40;99.90;;;;;;5098178;28;25081;-73
2023/01/19 07:10:42;;;;;;;7.10;3.83;;;1.40;99.90;;;;;;5098098;28;25110;-73
2023/01/19 07:13:10;;;;;;;8.10;3.60;;;1.40;99.90;;;;;;5098548;28;25069;-73
2023/01/19 07:15:38;;;;;;;8.15;4.15;;;1.40;99.90;;;;;;5098083;28;25075;-74
2023/01/19 07:18:06;;;;;;;8.68;4.07;;;1.40;99.90;;;;;;5098040;28;25044;-77
2023/01/19 07:20:36;;;;;;;11.25;4.70;;;1.30;99.90;;;;;;5097901;28;25078;-76
2023/01/19 07:23:06;;;;;;;16.85;5.07;;;1.30;99.90;;;;;;5097824;28;25106;-78
2023/01/19 07:25:34;;;;;;;10.88;5.22;;;1.30;99.90;;;;;;5098142;28;25071;-78
2023/01/19 07:28:02;;;;;;;8.13;4.18;;;1.30;99.90;;;;;;5097826;28;25110;-82
2023/01/19 07:30:42;;;;;;;9.88;3.65;;;1.20;99.90;;;;;;5097929;28;25129;-74
2023/01/19 07:33:09;;;;;;;9.48;3.92;;;1.20;99.90;;;;;;5098173;28;25143;-76
2023/01/19 07:35:36;;;;;;;9.30;3.85;;;1.10;99.90;;;;;;5097520;28;25054;-76
2023/01/19 07:38:04;;;;;;;9.02;5.13;;;1.10;99.90;;;;;;5097605;28;25057;-75
2023/01/19 07:40:32;;;;;;;9.07;4.25;;;1.00;99.90;;;;;;5097794;28;25117;-83
2023/01/19 07:43:00;;;;;;;19.23;5.28;;;0.90;99.90;;;;;;5079551;28;25063;-76
2023/01/19 07:45:27;;;;;;;15.68;6.10;;;0.90;99.90;;;;;;5097623;28;25058;-77
2023/01/19 07:47:55;;;;;;;15.35;5.72;;;0.90;99.90;;;;;;5097723;28;25076;-76
2023/01/19 07:50:24;;;;;;;10.70;4.60;;;0.80;99.90;;;;;;5097418;28;25116;-77
2023/01/19 07:52:52;;;;;;;10.98;6.22;;;0.80;99.90;;;;;;5097573;28;25111;-78
2023/01/19 07:55:21;;;;;;;12.38;5.90;;;0.80;99.90;;;;;;5097553;28;25076;-77
2023/01/19 07:57:52;;;;;;;10.32;4.53;;;0.70;99.90;;;;;;5079516;28;25157;-72
2023/01/19 08:00:23;;;;;;;13.48;5.63;;;0.70;99.90;;;;;;5097327;28;25105;-71
2023/01/19 08:02:52;;;;;;;7.80;5.45;;;0.70;99.90;;;;;;5097951;28;25065;-72
2023/01/19 08:05:20;;;;;;;9.25;4.32;;;0.70;99.90;;;;;;5097117;28;25150;-71
2023/01/19 08:07:47;;;;;;;10.25;5.60;;;0.70;99.90;;;;;;5078978;28;25076;-72
2023/01/19 08:10:16;;;;;;;8.38;5.55;;;0.70;99.90;;;;;;5097209;28;25052;-72
2023/01/19 08:12:44;;;;;;;11.23;6.03;;;0.70;99.90;;;;;;5096950;28;25065;-72
2023/01/19 08:15:12;;;;;;;11.20;5.53;;;0.70;99.90;;;;;;5097265;28;25112;-72
2023/01/19 08:17:40;;;;;;;8.07;4.68;;;0.70;99.90;;;;;;5097872;28;25096;-75
2023/01/19 08:20:09;;;;;;;9.43;4.40;;;0.60;99.90;;;;;;5096927;28;25053;-75
2023/01/19 08:22:37;;;;;;;12.57;6.32;;;0.60;99.90;;;;;;5097414;28;25090;-74
2023/01/19 08:25:05;;;;;;;8.55;5.10;;;0.60;99.90;;;;;;5096780;28;25154;-75
2023/01/19 08:27:33;;;;;;;10.10;5.25;;;0.60;99.90;;;;;;5096736;28;25059;-74
2023/01/19 08:30:01;;;;;;;12.02;5.60;;;0.60;99.90;;;;;;5097426;28;25097;-74
2023/01/19 08:32:29;;;;;;;12.10;6.95;;;0.60;99.90;;;;;;5096705;28;25073;-73
2023/01/19 08:34:57;;;;;;;7.38;4.60;;;0.60;99.90;;;;;;5097049;28;25115;-74
2023/01/19 08:37:24;;;;;;;13.82;4.95;;;0.60;99.90;;;;;;5096557;28;25083;-74
2023/01/19 08:39:52;;;;;;;8.70;4.63;;;0.60;99.90;;;;;;5096656;28;25072;-70
2023/01/19 08:42:20;;;;;;;9.23;4.65;;;0.60;99.90;;;;;;5096889;28;25061;-73
2023/01/19 08:44:48;;;;;;;8.68;4.95;;;0.60;99.90;;;;;;5078678;28;25116;-72
2023/01/19 08:47:16;;;;;;;10.38;5.63;;;0.60;99.90;;;;;;5096579;28;25054;-73
2023/01/19 08:49:43;;;;;;;9.15;4.10;;;0.60;99.90;;;;;;5096670;28;25156;-73
2023/01/19 08:52:11;;;;;;;6.43;3.83;;;0.60;99.90;;;;;;5097042;28;25077;-73
2023/01/19 08:54:38;;;;;;;8.05;4.40;;;0.60;99.90;;;;;;5096417;28;25067;-73
2023/01/19 08:57:06;;;;;;;12.80;5.90;;;0.50;99.90;;;;;;5095961;28;25072;-71
2023/01/19 08:59:33;;;;;;;10.70;4.85;;;0.60;99.90;;;;;;5078305;28;25416;-71
2023/01/19 09:02:01;;;;;;;10.52;5.63;;;0.60;99.90;;;;;;5096348;28;25136;-74
2023/01/19 09:04:28;;;;;;;9.55;5.30;;;0.60;99.90;;;;;;5078577;28;25103;-72
2023/01/19 09:06:56;;;;;;;8.93;4.70;;;0.60;99.90;;;;;;5079902;28;25083;-71
2023/01/19 09:09:23;;;;;;;9.48;6.03;;;0.60;99.90;;;;;;5097402;28;25064;-72
2023/01/19 09:11:53;;;;;;;8.73;4.05;;;0.70;99.90;;;;;;5097748;28;25085;-75
2023/01/19 09:14:21;;;;;;;11.73;5.40;;;0.70;99.90;;;;;;5079648;28;25111;-74
2023/01/19 09:16:48;;;;;;;9.98;5.38;;;0.80;99.90;;;;;;5079164;28;25101;-74
2023/01/19 09:19:17;;;;;;;8.32;4.93;;;0.80;99.90;;;;;;5097497;28;25110;-73
2023/01/19 09:21:44;;;;;;;8.90;5.22;;;0.80;99.90;;;;;;5096767;28;25051;-72
2023/01/19 09:24:11;;;;;;;11.23;4.93;;;0.80;99.90;;;;;;5096431;28;25121;-72
2023/01/19 09:26:39;;;;;;;11.27;4.90;;;0.90;99.90;;;;;;5096139;28;25082;-72
2023/01/19 09:29:07;;;;;;;7.20;3.38;;;0.80;99.90;;;;;;5096133;28;25127;-72
2023/01/19 09:31:34;;;;;;;4.93;3.25;;;0.80;99.90;;;;;;5096635;28;25069;-72
2023/01/19 09:34:02;;;;;;;8.77;4.55;;;0.80;99.90;;;;;;5096159;28;25049;-72
2023/01/19 09:36:31;;;;;;;5.40;3.38;;;0.80;99.90;;;;;;5096241;28;25156;-72
2023/01/19 09:38:59;;;;;;;7.90;4.68;;;0.90;99.90;;;;;;5095889;28;25045;-74
2023/01/19 09:41:26;;;;;;;8.15;4.30;;;0.90;99.90;;;;;;5077990;28;25116;-74
2023/01/19 09:43:59;;;;;;;7.50;4.25;;;0.90;99.90;;;;;;5096049;28;25047;-74
2023/01/19 09:46:38;;;;;;;5.32;3.40;;;1.00;99.90;;;;;;5095922;28;25123;-73
2023/01/19 09:49:19;;;;;;;7.18;4.00;;;1.10;99.90;;;;;;5096114;28;25153;-74
2023/01/19 09:51:48;;;;;;;5.85;2.92;;;1.20;99.90;;;;;;5096212;28;25053;-74
2023/01/19 09:54:19;;;;;;;5.50;2.78;;;1.30;99.90;;;;;;5095843;28;25080;-75
2023/01/19 09:56:48;;;;;;;3.85;2.25;;;1.30;99.90;;;;;;5096689;28;25104;-71
2023/01/19 09:59:21;;;;;;;4.75;3.08;;;1.30;99.90;;;;;;5078553;28;25066;-76
2023/01/19 10:02:26;;;;;;;3.63;2.47;;;1.20;99.90;;;;;;5077907;28;25103;-74
2023/01/19 10:05:21;;;;;;;5.20;2.42;;;1.20;99.90;;;;;;5096370;28;25066;-74
2023/01/19 10:08:16;;;;;;;3.92;2.60;;;1.30;99.90;;;;;;5097175;28;25076;-73
2023/01/19 10:10:53;;;;;;;3.30;2.10;;;1.30;99.90;;;;;;5052909;28;25057;-74
2023/01/19 10:13:41;;;;;;;3.72;1.92;;;1.40;99.90;;;;;;5099579;28;25084;-73
2023/01/19 10:16:41;;;;;;;5.07;1.92;;;1.40;99.90;;;;;;5099264;28;25060;-74
2023/01/19 10:19:48;;;;;;;3.58;2.05;;;1.40;99.90;;;;;;5099753;28;25133;-73
2023/01/19 10:22:24;;;;;;;4.30;2.20;;;1.40;99.90;;;;;;5094588;28;25067;-73
2023/01/19 10:24:56;;;;;;;2.10;1.40;;;1.50;99.90;;;;;;5099012;28;25049;-75
2023/01/19 10:27:33;;;;;;;2.35;1.35;;;1.50;99.90;;;;;;5081064;28;25101;-75
2023/01/19 10:30:01;;;;;;;3.78;1.60;;;1.60;99.90;;;;;;5099735;28;25086;-74
2023/01/19 10:32:39;;;;;;;2.13;1.35;;;1.70;99.90;;;;;;5098944;28;25088;-75
2023/01/19 10:35:22;;;;;;;2.33;1.40;;;1.70;99.90;;;;;;5098934;28;25073;-74
2023/01/19 10:38:00;;;;;;;3.13;1.45;;;1.70;99.90;;;;;;5098643;28;25068;-74
2023/01/19 10:40:46;;;;;;;3.53;1.80;;;1.70;99.90;;;;;;5098467;28;25074;-74
2023/01/19 10:43:43;;;;;;;2.58;1.50;;;1.70;99.90;;;;;;5098951;28;25057;-74
2023/01/19 10:46:33;;;;;;;2.85;1.55;;;1.70;99.90;;;;;;5080762;28;25084;-74
2023/01/19 10:49:01;;;;;;;3.10;1.85;;;1.60;99.90;;;;;;5098650;28;25091;-74
2023/01/19 10:51:28;;;;;;;2.53;1.95;;;1.60;99.90;;;;;;5098876;28;25053;-75
2023/01/19 10:54:01;;;;;;;4.72;1.80;;;1.50;99.90;;;;;;5080729;28;25054;-73
2023/01/19 10:56:37;;;;;;;2.80;1.85;;;1.50;99.90;;;;;;5098477;28;25065;-74
2023/01/19 10:59:06;;;;;;;2.53;1.63;;;1.50;99.90;;;;;;5080554;28;25052;-73
2023/01/19 11:01:35;;;;;;;2.30;1.50;;;1.50;99.90;;;;;;5098851;28;25081;-73
2023/01/19 11:04:27;;;;;;;2.80;1.60;;;1.50;99.90;;;;;;5098469;28;25120;-72
2023/01/19 11:07:19;;;;;;;3.20;1.75;;;1.60;99.90;;;;;;5098211;28;25082;-72
2023/01/19 11:09:48;;;;;;;2.83;1.70;;;1.70;99.90;;;;;;5098312;28;25096;-72
2023/01/19 11:12:21;;;;;;;5.15;1.90;;;1.70;99.90;;;;;;5098128;28;25066;-72
2023/01/19 11:14:50;;;;;;;6.28;1.63;;;1.70;99.90;;;;;;5080318;28;25097;-73
2023/01/19 11:17:28;;;;;;;2.22;1.52;;;1.70;99.90;;;;;;5097986;28;25069;-73
2023/01/19 11:20:01;;;;;;;5.15;2.42;;;1.70;99.90;;;;;;5097505;28;25099;-73
2023/01/19 11:22:33;;;;;;;4.68;2.15;;;1.70;99.90;;;;;;5098203;28;25091;-73
2023/01/19 11:25:03;;;;;;;3.08;1.90;;;1.70;99.90;;;;;;5098145;28;25066;-74
2023/01/19 11:27:36;;;;;;;4.70;3.17;;;1.70;99.90;;;;;;5079852;28;25071;-74
2023/01/19 11:30:25;;;;;;;5.03;3.05;;;1.60;99.90;;;;;;5097720;28;25108;-73
2023/01/19 11:32:53;;;;;;;6.40;3.70;;;1.50;99.90;;;;;;5097765;28;25080;-72
2023/01/19 11:35:37;;;;;;;6.95;3.97;;;1.50;99.90;;;;;;5097646;28;25064;-73
2023/01/19 11:38:22;;;;;;;6.57;4.13;;;1.50;99.90;;;;;;5097685;28;25072;-72
2023/01/19 11:40:55;;;;;;;7.30;4.25;;;1.40;99.90;;;;;;5097439;28;25102;-74
2023/01/19 11:43:28;;;;;;;7.25;3.95;;;1.40;99.90;;;;;;5097596;28;25091;-73
2023/01/19 11:45:57;;;;;;;5.90;3.90;;;1.40;99.90;;;;;;5097518;28;25064;-72
2023/01/19 11:49:03;;;;;;;6.68;3.70;;;1.40;99.90;;;;;;5079631;28;25111;-72
2023/01/19 11:52:03;;;;;;;5.18;3.60;;;1.40;99.90;;;;;;5097378;28;25071;-72
2023/01/19 11:54:44;;;;;;;7.15;3.97;;;1.40;99.90;;;;;;5097486;28;25096;-77
2023/01/19 11:57:16;;;;;;;6.72;3.88;;;1.40;99.90;;;;;;5097104;28;25090;-75
2023/01/19 11:59:44;;;;;;;5.25;3.22;;;1.40;99.90;;;;;;5097208;28;25052;-75
2023/01/19 12:02:33;;;;;;;6.70;3.42;;;1.30;99.90;;;;;;5097190;28;25044;-74
2023/01/19 12:05:06;;;;;;;5.75;3.25;;;1.30;99.90;;;;;;5097169;28;25064;-74
2023/01/19 12:07:35;;;;;;;5.40;2.88;;;1.40;99.90;;;;;;5097101;28;25064;-73
2023/01/19 12:10:15;;;;;;;5.82;2.75;;;1.50;99.90;;;;;;5097317;28;25062;-73
2023/01/19 12:12:44;;;;;;;3.08;1.55;;;1.60;99.90;;;;;;5096986;28;25117;-75
2023/01/19 12:15:36;;;;;;;6.13;2.60;;;1.60;99.90;;;;;;5097531;28;25073;-74
2023/01/19 12:18:06;;;;;;;4.57;2.67;;;1.70;99.90;;;;;;5097090;28;25060;-73
2023/01/19 12:20:49;;;;;;;3.88;2.40;;;1.80;99.90;;;;;;5096831;28;25073;-73
2023/01/19 12:23:36;;;;;;;4.88;2.85;;;1.80;99.90;;;;;;5096864;28;25148;-73
2023/01/19 12:26:06;;;;;;;4.38;2.55;;;1.80;99.90;;;;;;5097120;28;25079;-73
2023/01/19 12:28:41;;;;;;;5.72;2.97;;;1.80;99.90;;;;;;5097509;28;25067;-73
2023/01/19 12:31:09;;;;;;;10.15;3.10;;;1.80;99.90;;;;;;5096249;28;25056;-76
2023/01/19 12:33:40;;;;;;;9.57;3.65;;;1.80;99.90;;;;;;5078791;28;25132;-75
2023/01/19 12:36:40;;;;;;;5.65;2.28;;;1.90;99.90;;;;;;5096720;28;25081;-75
2023/01/19 12:39:21;;;;;;;8.13;3.30;;;1.90;99.90;;;;;;5096752;28;25054;-79
2023/01/19 12:42:04;;;;;;;9.40;3.97;;;1.90;99.90;;;;;;5078735;28;25128;-75
2023/01/19 12:44:32;;;;;;;8.90;3.05;;;1.90;99.90;;;;;;5078603;28;25104;-79
2023/01/19 12:47:19;;;;;;;6.85;3.33;;;1.90;99.90;;;;;;5096792;28;25058;-77
2023/01/19 12:49:50;;;;;;;7.93;3.75;;;1.80;99.90;;;;;;5078620;28;25068;-77
2023/01/19 12:52:29;;;;;;;12.75;4.32;;;1.80;99.90;;;;;;5096481;28;25055;-77
2023/01/19 12:55:07;;;;;;;12.40;6.10;;;1.80;99.90;;;;;;5096581;28;25113;-76
2023/01/19 12:57:37;;;;;;;9.52;5.50;;;1.70;99.90;;;;;;5096422;28;25078;-77
2023/01/19 13:00:31;;;;;;;13.25;4.10;;;1.70;99.90;;;;;;5096572;28;25078;-77
2023/01/19 13:03:20;;;;;;;12.43;5.35;;;1.70;99.90;;;;;;5096812;28;25128;-79
2023/01/19 13:05:53;;;;;;;15.60;5.65;;;1.70;99.90;;;;;;5095015;28;25132;-74
2023/01/19 13:08:45;;;;;;;23.40;6.30;;;1.80;99.90;;;;;;5096365;28;25075;-76
2023/01/19 13:11:17;;;;;;;13.80;5.95;;;1.80;99.90;;;;;;5096062;28;25055;-72
2023/01/19 13:14:00;;;;;;;17.88;6.10;;;1.80;99.90;;;;;;5096537;28;25086;-79
2023/01/19 13:16:28;;;;;;;11.40;5.07;;;1.90;99.90;;;;;;5096535;28;25126;-81
2023/01/19 13:19:01;;;;;;;12.77;4.70;;;1.90;99.90;;;;;;5096561;28;25058;-78
2023/01/19 13:21:45;;;;;;;14.77;5.57;;;1.90;99.90;;;;;;5078172;28;25066;-74
2023/01/19 13:24:18;;;;;;;10.32;4.50;;;1.90;99.90;;;;;;5096379;28;25063;-78
2023/01/19 13:26:49;;;;;;;15.98;5.18;;;1.90;99.90;;;;;;5096407;28;25072;-78
2023/01/19 13:29:29;;;;;;;15.55;3.40;;;1.90;99.90;;;;;;5096425;28;25072;-77